Al Rawdah — V7VM8 — position and weather

sailwx.info

Track history (hours):
 
Tides and Currents Weather Stations Pressure Air Temp Water Temp Dewpoint Dewpoint Depression Visibility Wind Speed Wind Dir Waves Ship Positions

Al Rawdah

Last reported at 2015-Jul-07 14:33 UTC. Time now 2015-Jul-07 15:26 UTC.
Position N 44°22' E 008°57'.

Length 307 m; draft 11.6 m.

Type: Ship (hazmat cat A). MMSI: 538004160.

Date/timePositionNaut miles runAvg speedWind from/ knotsBaromVisibWave heightAir tempDewpointWater temp
2015-Jul-07 14:33N 44°22' E 008°57'2 2.3
2015-Jul-07 13:30N 44°24' E 008°55'0 0.0
2015-Jul-07 12:24N 44°24' E 008°55'0 0.0
2015-Jul-07 11:30N 44°24' E 008°55'0 0.0
2015-Jul-07 10:24N 44°24' E 008°55'0 0.0
2015-Jul-07 09:33N 44°24' E 008°55'0 0.0
2015-Jul-07 08:33N 44°24' E 008°55'0 0.0
2015-Jul-07 07:30N 44°24' E 008°55'0 0.0
2015-Jul-07 06:30N 44°24' E 008°55'0 0.0
2015-Jul-07 05:30N 44°24' E 008°55'0 0.0
2015-Jul-07 04:30N 44°24' E 008°55'0 0.0
2015-Jul-07 03:30N 44°24' E 008°55'0 0.0
2015-Jul-07 02:33N 44°24' E 008°55'0 0.0
2015-Jul-07 01:33N 44°24' E 008°55'0 0.0
2015-Jul-07 00:33N 44°24' E 008°55'0 0.0
2015-Jul-06 23:30N 44°24' E 008°55'0 0.0
2015-Jul-06 22:33N 44°24' E 008°55'0 0.0
2015-Jul-06 21:34N 44°24' E 008°55'0 0.0
2015-Jul-06 20:33N 44°24' E 008°55'0 0.0
2015-Jul-06 19:33N 44°24' E 008°55'0 0.0
2015-Jul-06 18:34N 44°24' E 008°55'0 0.0
2015-Jul-06 17:33N 44°24' E 008°55'0 0.0
2015-Jul-06 16:33N 44°24' E 008°55'0 0.0
2015-Jul-06 15:33N 44°24' E 008°55'3 3.0
2015-Jul-06 14:34N 44°22' E 008°58'1312.8
2015-Jul-06 13:33N 44°11' E 009°07'1514.7
2015-Jul-06 12:34N 43°59' E 009°19'1413.6
2015-Jul-06 11:33N 43°47' E 009°28'1312.6
2015-Jul-06 10:33N 43°37' E 009°38'1111.2
2015-Jul-06 09:33N 43°32' E 009°52'9 8.6
2015-Jul-06 08:33N 43°29' E 010°03'8 8.0
2015-Jul-06 07:33N 43°31' E 010°14'5 4.5
2015-Jul-06 06:31N 43°34' E 010°18'0 0.0
2015-Jul-06 05:31N 43°34' E 010°18'0 0.0
2015-Jul-06 04:31N 43°34' E 010°18'0 0.0
2015-Jul-06 03:31N 43°34' E 010°18'0 0.0
2015-Jul-06 02:31N 43°34' E 010°18'0 0.0
2015-Jul-06 01:31N 43°34' E 010°18'0 0.0
2015-Jul-06 00:31N 43°34' E 010°18'0 0.0
2015-Jul-05 23:31N 43°34' E 010°18'0 0.0
2015-Jul-05 22:31N 43°34' E 010°18'0 0.0
2015-Jul-05 21:31N 43°34' E 010°18'0 0.0
2015-Jul-05 20:31N 43°34' E 010°18'0 0.0
2015-Jul-05 19:31N 43°34' E 010°18'0 0.0
2015-Jul-05 18:31N 43°34' E 010°18'0 0.0
2015-Jul-05 17:28N 43°34' E 010°18'0 0.0
2015-Jul-05 16:31N 43°34' E 010°18'0 0.0
2015-Jul-05 15:31N 43°34' E 010°18'0 0.0
2015-Jul-05 14:31N 43°34' E 010°18'0 0.0
2015-Jul-05 13:31N 43°34' E 010°18'0 0.0
2015-Jul-05 12:31N 43°34' E 010°18'0 0.0
2015-Jul-05 11:31N 43°34' E 010°18'1 1.1
2015-Jul-05 10:33N 43°33' E 010°18'6 5.7
2015-Jul-05 09:33N 43°29' E 010°13'4 3.6
2015-Jul-05 08:33N 43°26' E 010°10'9 9.1
2015-Jul-05 07:33N 43°17' E 010°08'9 8.8
2015-Jul-05 06:33N 43°09' E 010°06'1616.3
2015-Jul-05 05:33N 42°53' E 009°60'2220.9
2015-Jul-05 04:30N 42°32' E 009°50'1920.0
2015-Jul-05 03:33N 42°15' E 010°02'2221.4
2015-Jul-05 02:33N 42°01' E 010°24'2121.6
2015-Jul-05 01:33N 41°47' E 010°45'2121.1
2015-Jul-05 00:34N 41°33' E 011°07'2120.7
2015-Jul-04 23:33N 41°20' E 011°28'2121.0
2015-Jul-04 22:34N 41°07' E 011°50'2121.2
2015-Jul-04 21:34N 40°53' E 012°10'2121.1
2015-Jul-04 20:33N 40°39' E 012°32'2721.2
2015-Jul-04 19:17N 40°22' E 012°60'1621.5
2015-Jul-04 18:32N 40°12' E 013°16'2121.6
2015-Jul-04 17:33N 39°59' E 013°38'2121.2
2015-Jul-04 16:33N 39°46' E 013°59'2121.3
2015-Jul-04 15:34N 39°31' E 014°19'2221.6
2015-Jul-04 14:34N 39°17' E 014°40'2322.9
2015-Jul-04 13:33N 39°03' E 015°04'2020.3
2015-Jul-04 12:33N 38°49' E 015°23'2120.7
2015-Jul-04 11:33N 38°30' E 015°35'1615.9
2015-Jul-04 10:34N 38°15' E 015°39'1716.5
2015-Jul-04 09:33N 37°59' E 015°35'1918.8
2015-Jul-04 08:33N 37°45' E 015°51'2120.7
2015-Jul-04 07:33N 37°37' E 016°15'2120.8
2015-Jul-04 06:33N 37°28' E 016°39'2120.9
2015-Jul-04 05:33N 37°19' E 017°03'2121.1
2015-Jul-04 04:33N 37°11' E 017°27'73520.8
2015-Jul-02 17:13N 32°08' E 031°01'1420.5
2015-Jul-02 16:32N 32°03' E 031°16'2020.2
2015-Jul-02 15:33N 31°55' E 031°38'2020.0
2015-Jul-02 14:33N 31°45' E 031°58'2020.4
2015-Jul-02 13:33N 31°31' E 032°16'1413.7
2015-Jul-02 12:34N 31°19' E 032°23'6 6.0
2015-Jul-02 11:33N 31°13' E 032°21'0 0.0
2015-Jul-02 10:24N 31°13' E 032°21'0 0.0
2015-Jul-02 09:30N 31°13' E 032°21'0 0.0
2015-Jul-02 08:21N 31°13' E 032°21'  
Track history (hours):
 
Tides and Currents Weather Stations Pressure Air Temp Water Temp Dewpoint Dewpoint Depression Visibility Wind Speed Wind Dir Waves Ship Positions

Al Rawdah

Last reported at 2015-Jul-07 14:33 UTC. Time now 2015-Jul-07 15:26 UTC.
Position N 44°22' E 008°57'.

Length 307 m; draft 11.6 m.

Type: Ship (hazmat cat A). MMSI: 538004160.

Date/timePositionNaut miles runAvg speedWind from/ knotsBaromVisibWave heightAir tempDewpointWater temp
2015-Jul-07 14:33N 44°22' E 008°57'2 2.3
2015-Jul-07 13:30N 44°24' E 008°55'0 0.0
2015-Jul-07 12:24N 44°24' E 008°55'0 0.0
2015-Jul-07 11:30N 44°24' E 008°55'0 0.0
2015-Jul-07 10:24N 44°24' E 008°55'0 0.0
2015-Jul-07 09:33N 44°24' E 008°55'0 0.0
2015-Jul-07 08:33N 44°24' E 008°55'0 0.0
2015-Jul-07 07:30N 44°24' E 008°55'0 0.0
2015-Jul-07 06:30N 44°24' E 008°55'0 0.0
2015-Jul-07 05:30N 44°24' E 008°55'0 0.0
2015-Jul-07 04:30N 44°24' E 008°55'0 0.0
2015-Jul-07 03:30N 44°24' E 008°55'0 0.0
2015-Jul-07 02:33N 44°24' E 008°55'0 0.0
2015-Jul-07 01:33N 44°24' E 008°55'0 0.0
2015-Jul-07 00:33N 44°24' E 008°55'0 0.0
2015-Jul-06 23:30N 44°24' E 008°55'0 0.0
2015-Jul-06 22:33N 44°24' E 008°55'0 0.0
2015-Jul-06 21:34N 44°24' E 008°55'0 0.0
2015-Jul-06 20:33N 44°24' E 008°55'0 0.0
2015-Jul-06 19:33N 44°24' E 008°55'0 0.0
2015-Jul-06 18:34N 44°24' E 008°55'0 0.0
2015-Jul-06 17:33N 44°24' E 008°55'0 0.0
2015-Jul-06 16:33N 44°24' E 008°55'0 0.0
2015-Jul-06 15:33N 44°24' E 008°55'3 3.0
2015-Jul-06 14:34N 44°22' E 008°58'1312.8
2015-Jul-06 13:33N 44°11' E 009°07'1514.7
2015-Jul-06 12:34N 43°59' E 009°19'1413.6
2015-Jul-06 11:33N 43°47' E 009°28'1312.6
2015-Jul-06 10:33N 43°37' E 009°38'1111.2
2015-Jul-06 09:33N 43°32' E 009°52'9 8.6
2015-Jul-06 08:33N 43°29' E 010°03'8 8.0
2015-Jul-06 07:33N 43°31' E 010°14'5 4.5
2015-Jul-06 06:31N 43°34' E 010°18'0 0.0
2015-Jul-06 05:31N 43°34' E 010°18'0 0.0
2015-Jul-06 04:31N 43°34' E 010°18'0 0.0
2015-Jul-06 03:31N 43°34' E 010°18'0 0.0
2015-Jul-06 02:31N 43°34' E 010°18'0 0.0
2015-Jul-06 01:31N 43°34' E 010°18'0 0.0
2015-Jul-06 00:31N 43°34' E 010°18'0 0.0
2015-Jul-05 23:31N 43°34' E 010°18'0 0.0
2015-Jul-05 22:31N 43°34' E 010°18'0 0.0
2015-Jul-05 21:31N 43°34' E 010°18'0 0.0
2015-Jul-05 20:31N 43°34' E 010°18'0 0.0
2015-Jul-05 19:31N 43°34' E 010°18'0 0.0
2015-Jul-05 18:31N 43°34' E 010°18'0 0.0
2015-Jul-05 17:28N 43°34' E 010°18'0 0.0
2015-Jul-05 16:31N 43°34' E 010°18'0 0.0
2015-Jul-05 15:31N 43°34' E 010°18'0 0.0
2015-Jul-05 14:31N 43°34' E 010°18'0 0.0
2015-Jul-05 13:31N 43°34' E 010°18'0 0.0
2015-Jul-05 12:31N 43°34' E 010°18'0 0.0
2015-Jul-05 11:31N 43°34' E 010°18'1 1.1
2015-Jul-05 10:33N 43°33' E 010°18'6 5.7
2015-Jul-05 09:33N 43°29' E 010°13'4 3.6
2015-Jul-05 08:33N 43°26' E 010°10'9 9.1
2015-Jul-05 07:33N 43°17' E 010°08'9 8.8
2015-Jul-05 06:33N 43°09' E 010°06'1616.3
2015-Jul-05 05:33N 42°53' E 009°60'2220.9
2015-Jul-05 04:30N 42°32' E 009°50'1920.0
2015-Jul-05 03:33N 42°15' E 010°02'2221.4
2015-Jul-05 02:33N 42°01' E 010°24'2121.6
2015-Jul-05 01:33N 41°47' E 010°45'2121.1
2015-Jul-05 00:34N 41°33' E 011°07'2120.7
2015-Jul-04 23:33N 41°20' E 011°28'2121.0
2015-Jul-04 22:34N 41°07' E 011°50'2121.2
2015-Jul-04 21:34N 40°53' E 012°10'2121.1
2015-Jul-04 20:33N 40°39' E 012°32'2721.2
2015-Jul-04 19:17N 40°22' E 012°60'1621.5
2015-Jul-04 18:32N 40°12' E 013°16'2121.6
2015-Jul-04 17:33N 39°59' E 013°38'2121.2
2015-Jul-04 16:33N 39°46' E 013°59'2121.3
2015-Jul-04 15:34N 39°31' E 014°19'2221.6
2015-Jul-04 14:34N 39°17' E 014°40'2322.9
2015-Jul-04 13:33N 39°03' E 015°04'2020.3
2015-Jul-04 12:33N 38°49' E 015°23'2120.7
2015-Jul-04 11:33N 38°30' E 015°35'1615.9
2015-Jul-04 10:34N 38°15' E 015°39'1716.5
2015-Jul-04 09:33N 37°59' E 015°35'1918.8
2015-Jul-04 08:33N 37°45' E 015°51'2120.7
2015-Jul-04 07:33N 37°37' E 016°15'2120.8
2015-Jul-04 06:33N 37°28' E 016°39'2120.9
2015-Jul-04 05:33N 37°19' E 017°03'2121.1
2015-Jul-04 04:33N 37°11' E 017°27'73520.8
2015-Jul-02 17:13N 32°08' E 031°01'1420.5
2015-Jul-02 16:32N 32°03' E 031°16'2020.2
2015-Jul-02 15:33N 31°55' E 031°38'2020.0
2015-Jul-02 14:33N 31°45' E 031°58'2020.4
2015-Jul-02 13:33N 31°31' E 032°16'1413.7
2015-Jul-02 12:34N 31°19' E 032°23'6 6.0
2015-Jul-02 11:33N 31°13' E 032°21'0 0.0
2015-Jul-02 10:24N 31°13' E 032°21'0 0.0
2015-Jul-02 09:30N 31°13' E 032°21'0 0.0
2015-Jul-02 08:21N 31°13' E 032°21'  

Dump ship's entire track history